createdAt,value
2022-12-19T00:00:49.881Z,4.07
2022-12-19T00:03:19.399Z,4.15
2022-12-19T00:05:48.892Z,3.40
2022-12-19T00:08:19.138Z,3.90
2022-12-19T00:10:59.027Z,3.85
2022-12-19T00:13:31.219Z,3.58
2022-12-19T00:16:13.479Z,3.17
2022-12-19T00:18:45.327Z,3.53
2022-12-19T00:21:16.966Z,4.28
2022-12-19T00:23:47.294Z,4.75
2022-12-19T00:26:20.764Z,3.88
2022-12-19T00:28:53.284Z,4.43
2022-12-19T00:31:24.499Z,4.20
2022-12-19T00:33:54.070Z,4.25
2022-12-19T00:36:25.792Z,3.65
2022-12-19T00:38:57.918Z,3.53
2022-12-19T00:41:31.133Z,3.90
2022-12-19T00:44:02.986Z,3.33
2022-12-19T00:46:33.081Z,3.45
2022-12-19T00:50:59.945Z,3.50
2022-12-19T00:53:29.388Z,3.45
2022-12-19T00:55:59.053Z,4.40
2022-12-19T00:58:32.196Z,4.88
2022-12-19T01:01:09.184Z,4.53
2022-12-19T01:03:38.824Z,4.60
2022-12-19T01:06:10.796Z,5.05
2022-12-19T01:08:40.727Z,4.95
2022-12-19T01:11:10.981Z,5.95
2022-12-19T01:13:41.353Z,4.78
2022-12-19T01:16:14.277Z,8.45
2022-12-19T01:18:43.836Z,12.30
2022-12-19T01:21:14.627Z,17.17
2022-12-19T01:23:43.975Z,13.10
2022-12-19T01:26:13.426Z,8.23
2022-12-19T01:28:42.816Z,6.03
2022-12-19T01:31:12.279Z,5.53
2022-12-19T01:33:43.687Z,4.45
2022-12-19T01:36:16.144Z,5.05
2022-12-19T01:38:45.567Z,6.25
2022-12-19T01:41:15.013Z,8.73
2022-12-19T01:44:01.709Z,12.63
2022-12-19T01:46:36.778Z,8.00
2022-12-19T01:49:11.250Z,8.38
2022-12-19T01:51:47.749Z,7.10
2022-12-19T01:54:23.032Z,8.38
2022-12-19T01:56:56.698Z,8.95
2022-12-19T01:59:32.990Z,7.07
2022-12-19T02:02:11.356Z,7.13
2022-12-19T02:04:43.208Z,5.85
2022-12-19T02:07:16.104Z,8.15
2022-12-19T02:09:47.604Z,9.38
2022-12-19T02:12:22.165Z,8.00
2022-12-19T02:14:52.030Z,10.73
2022-12-19T02:17:30.849Z,9.55
2022-12-19T02:20:52.928Z,8.35
2022-12-19T02:24:10.273Z,11.18
2022-12-19T02:27:20.000Z,8.70
2022-12-19T02:30:10.814Z,10.77
2022-12-19T02:32:52.411Z,11.15
2022-12-19T02:35:35.324Z,5.35
2022-12-19T02:38:16.836Z,8.00
2022-12-19T02:40:55.604Z,7.47
2022-12-19T02:43:29.593Z,8.98
2022-12-19T02:46:00.026Z,8.38
2022-12-19T02:48:32.043Z,10.00
2022-12-19T02:51:01.503Z,5.90
2022-12-19T02:53:30.919Z,8.20
2022-12-19T02:56:29.511Z,5.40
2022-12-19T02:59:37.131Z,7.65
2022-12-19T03:02:16.346Z,6.57
2022-12-19T03:04:56.310Z,5.38
2022-12-19T03:07:33.451Z,5.75
2022-12-19T03:10:13.460Z,7.75
2022-12-19T03:12:50.253Z,10.02
2022-12-19T03:15:21.235Z,11.05
2022-12-19T03:17:51.489Z,9.95
2022-12-19T03:20:30.534Z,7.78
2022-12-19T03:22:59.995Z,6.13
2022-12-19T03:25:32.845Z,6.40
2022-12-19T03:30:36.948Z,7.32
2022-12-19T03:33:07.093Z,6.90
2022-12-19T03:35:40.472Z,6.38
2022-12-19T03:38:11.692Z,10.60
2022-12-19T03:40:45.657Z,7.25
2022-12-19T03:43:18.259Z,7.75
2022-12-19T03:52:00.119Z,5.53
2022-12-19T03:54:32.900Z,8.55
2022-12-19T03:59:42.559Z,4.40
2022-12-19T04:02:14.744Z,5.97
2022-12-19T04:04:50.605Z,6.20
2022-12-19T04:07:22.362Z,6.55
2022-12-19T04:09:53.195Z,8.43
2022-12-19T04:12:29.920Z,8.45
2022-12-19T04:14:59.521Z,5.93
2022-12-19T04:17:39.651Z,4.80
2022-12-19T04:20:11.568Z,4.22
2022-12-19T04:22:47.722Z,4.57
2022-12-19T04:25:26.294Z,4.07
2022-12-19T04:28:03.415Z,4.05
2022-12-19T04:30:36.952Z,4.70
2022-12-19T04:33:07.927Z,3.67
2022-12-19T04:35:38.106Z,3.15
2022-12-19T04:38:09.020Z,3.53
2022-12-19T04:40:41.426Z,3.42
2022-12-19T04:43:11.529Z,3.33
2022-12-19T04:45:43.657Z,4.38
2022-12-19T04:48:13.243Z,3.67
2022-12-19T04:50:42.702Z,4.47
2022-12-19T04:53:13.699Z,5.90
2022-12-19T04:55:44.337Z,4.32
2022-12-19T04:58:18.938Z,4.30
2022-12-19T05:00:51.104Z,4.95
2022-12-19T05:03:20.542Z,3.45
2022-12-19T05:05:50.023Z,3.55
2022-12-19T05:08:20.809Z,3.88
2022-12-19T05:10:50.364Z,3.22
2022-12-19T05:13:19.704Z,4.63
2022-12-19T05:15:58.748Z,4.65
2022-12-19T05:18:28.842Z,3.50
2022-12-19T05:20:58.637Z,3.15
2022-12-19T05:23:29.535Z,4.20
2022-12-19T05:26:00.718Z,5.80
2022-12-19T05:28:30.808Z,3.95
2022-12-19T05:31:08.143Z,3.75
2022-12-19T05:33:38.147Z,4.32
2022-12-19T05:36:09.057Z,4.57
2022-12-19T05:38:40.420Z,5.10
2022-12-19T05:41:11.725Z,4.45
2022-12-19T05:43:41.683Z,5.40
2022-12-19T05:46:11.284Z,5.30
2022-12-19T05:48:40.852Z,5.18
2022-12-19T05:51:11.242Z,5.70
2022-12-19T05:53:43.475Z,4.30
2022-12-19T05:56:16.339Z,4.63
2022-12-19T06:01:18.551Z,4.50
2022-12-19T06:03:48.745Z,4.20
2022-12-19T06:06:20.719Z,4.93
2022-12-19T06:08:55.751Z,5.40
2022-12-19T06:11:25.713Z,4.15
2022-12-19T06:13:55.486Z,4.93
2022-12-19T06:16:25.835Z,4.00
2022-12-19T06:18:55.316Z,4.22
2022-12-19T06:21:26.439Z,4.70
2022-12-19T06:23:57.569Z,4.40
2022-12-19T06:26:27.471Z,3.63
2022-12-19T06:28:57.954Z,4.07
2022-12-19T06:31:27.777Z,3.67
2022-12-19T06:33:58.110Z,4.50
2022-12-19T06:36:29.966Z,4.78
2022-12-19T06:39:01.375Z,5.10
2022-12-19T06:41:48.268Z,3.13
2022-12-19T06:44:19.600Z,2.90
2022-12-19T06:46:49.074Z,3.88
2022-12-19T06:51:52.686Z,2.38
2022-12-19T06:54:22.053Z,2.97
2022-12-19T06:56:51.534Z,3.03
2022-12-19T06:59:21.003Z,2.70
2022-12-19T07:01:59.535Z,2.60
2022-12-19T07:04:33.887Z,1.88
2022-12-19T07:07:05.058Z,2.65
2022-12-19T07:09:36.128Z,2.63
2022-12-19T07:12:09.073Z,2.15
2022-12-19T07:14:38.421Z,2.50
2022-12-19T07:17:08.462Z,2.90
2022-12-19T07:19:38.713Z,2.05
2022-12-19T07:22:09.912Z,1.77
2022-12-19T07:24:39.717Z,1.73
2022-12-19T07:27:09.138Z,3.45
2022-12-19T07:29:38.481Z,2.30
2022-12-19T07:32:07.997Z,2.40
2022-12-19T07:34:37.428Z,2.40
2022-12-19T07:37:11.011Z,3.10
2022-12-19T07:39:40.391Z,2.10
2022-12-19T07:42:15.694Z,2.08
2022-12-19T07:44:45.009Z,2.08
2022-12-19T07:47:14.380Z,2.20
2022-12-19T07:49:43.943Z,2.30
2022-12-19T07:52:14.758Z,2.10
2022-12-19T07:54:44.050Z,2.10
2022-12-19T07:57:13.414Z,1.75
2022-12-19T07:59:42.701Z,2.88
2022-12-19T08:02:12.281Z,2.42
2022-12-19T08:04:41.820Z,3.00
2022-12-19T08:07:11.330Z,2.95
2022-12-19T08:09:42.184Z,2.92
2022-12-19T08:12:11.754Z,3.17
2022-12-19T08:14:41.233Z,2.50
2022-12-19T08:17:20.204Z,2.80
2022-12-19T08:19:49.892Z,3.75
2022-12-19T08:22:19.435Z,8.77
2022-12-19T08:24:50.308Z,7.30
2022-12-19T08:27:20.125Z,12.40
2022-12-19T08:29:49.506Z,9.82
2022-12-19T08:32:21.416Z,4.55
2022-12-19T08:34:51.315Z,5.35
2022-12-19T08:37:20.616Z,9.27
2022-12-19T08:39:51.619Z,8.30
2022-12-19T08:42:20.925Z,4.78
2022-12-19T08:44:50.115Z,5.32
2022-12-19T08:47:19.561Z,5.75
2022-12-19T08:49:49.031Z,6.20
2022-12-19T08:52:19.970Z,6.35
2022-12-19T08:54:50.773Z,7.18
2022-12-19T08:57:20.091Z,6.70
2022-12-19T08:59:49.672Z,7.18
2022-12-19T09:02:20.228Z,4.63
2022-12-19T09:06:02.453Z,5.43
2022-12-19T09:07:39.953Z,6.32
2022-12-19T09:10:11.548Z,4.75
2022-12-19T09:12:41.076Z,4.78
2022-12-19T09:15:11.314Z,5.25
2022-12-19T09:17:40.768Z,6.15
2022-12-19T09:20:19.651Z,4.90
2022-12-19T09:22:52.401Z,4.87
2022-12-19T09:25:23.241Z,7.57
2022-12-19T09:28:26.525Z,6.32
2022-12-19T09:30:42.433Z,5.03
2022-12-19T09:33:11.966Z,5.32
2022-12-19T09:35:41.489Z,5.78
2022-12-19T09:38:10.751Z,4.60
2022-12-19T09:40:59.777Z,5.88
2022-12-19T09:43:47.703Z,5.28
2022-12-19T09:46:21.328Z,6.30
2022-12-19T09:52:00.791Z,5.95
2022-12-19T09:54:38.621Z,6.93
2022-12-19T09:57:16.718Z,6.72
2022-12-19T09:59:50.943Z,7.25
2022-12-19T10:02:36.950Z,8.65
2022-12-19T10:05:52.348Z,6.70
2022-12-19T10:08:19.972Z,8.40
2022-12-19T10:12:40.456Z,8.45
2022-12-19T10:14:18.071Z,6.22
2022-12-19T10:17:23.560Z,7.97
2022-12-19T10:20:18.243Z,6.57
2022-12-19T10:23:03.232Z,7.22
2022-12-19T10:25:53.855Z,6.93
2022-12-19T10:28:46.163Z,7.75
2022-12-19T10:31:22.808Z,9.60
2022-12-19T10:33:59.669Z,7.80
2022-12-19T10:37:04.684Z,8.40
2022-12-19T10:39:31.196Z,9.45
2022-12-19T10:42:12.819Z,9.32
2022-12-19T10:44:45.187Z,9.40
2022-12-19T10:47:19.245Z,7.45
2022-12-19T10:49:49.596Z,8.88
2022-12-19T10:52:53.019Z,6.70
2022-12-19T10:55:37.544Z,7.63
2022-12-19T10:58:23.237Z,6.63
2022-12-19T11:01:15.765Z,6.85
2022-12-19T11:03:48.254Z,7.57
2022-12-19T11:06:52.055Z,8.90
2022-12-19T11:09:29.549Z,7.80
2022-12-19T11:14:30.992Z,7.43
2022-12-19T11:20:09.280Z,8.15
2022-12-19T11:28:18.239Z,7.10
2022-12-19T11:29:37.894Z,6.78
2022-12-19T11:30:43.752Z,5.95
2022-12-19T11:30:49.021Z,6.47
2022-12-19T11:32:44.447Z,6.97
2022-12-19T11:35:37.111Z,7.13
2022-12-19T11:38:10.590Z,18.23
2022-12-19T11:40:49.148Z,11.75
2022-12-19T11:43:46.237Z,6.15
2022-12-19T11:46:34.127Z,6.95
2022-12-19T11:49:13.883Z,12.35
2022-12-19T11:51:54.367Z,15.77
2022-12-19T11:54:30.449Z,7.93
2022-12-19T11:56:59.980Z,5.70
2022-12-19T11:59:34.276Z,12.90
2022-12-19T12:02:43.372Z,10.88
2022-12-19T12:05:47.426Z,6.65
2022-12-19T12:10:48.564Z,5.00
2022-12-19T12:18:37.576Z,4.97
2022-12-19T12:23:50.608Z,4.22
2022-12-19T12:31:00.482Z,4.00
2022-12-19T12:31:12.378Z,4.75
2022-12-19T12:31:38.459Z,4.05
2022-12-19T12:31:49.080Z,4.63
2022-12-19T12:31:57.752Z,4.25
2022-12-19T12:35:28.857Z,3.90
2022-12-19T12:39:18.222Z,3.30
2022-12-19T12:42:08.050Z,3.45
2022-12-19T12:44:45.074Z,2.75
2022-12-19T12:47:21.195Z,2.85
2022-12-19T12:51:53.655Z,3.03
2022-12-19T12:54:33.336Z,2.63
2022-12-19T12:57:04.169Z,3.25
2022-12-19T12:59:34.594Z,4.10
2022-12-19T13:02:18.778Z,4.90
2022-12-19T13:05:00.834Z,5.10
2022-12-19T13:07:53.119Z,2.85
2022-12-19T13:10:27.153Z,3.15
2022-12-19T13:13:05.143Z,3.45
2022-12-19T13:15:44.434Z,8.57
2022-12-19T13:18:35.802Z,12.23
2022-12-19T13:21:09.424Z,7.90
2022-12-19T13:24:16.117Z,3.65
2022-12-19T13:26:52.635Z,2.58
2022-12-19T13:29:54.656Z,3.03
2022-12-19T13:32:25.190Z,2.15
2022-12-19T13:35:12.795Z,3.53
2022-12-19T13:39:54.404Z,4.63
2022-12-19T13:40:59.953Z,3.33
2022-12-19T13:43:49.031Z,5.10
2022-12-19T13:46:33.122Z,2.70
2022-12-19T13:49:08.014Z,2.13
2022-12-19T13:51:48.652Z,3.88
2022-12-19T13:54:32.056Z,1.83
2022-12-19T13:57:09.609Z,2.17
2022-12-19T13:59:59.173Z,1.90
2022-12-19T14:02:44.005Z,1.85
2022-12-19T14:06:15.171Z,2.50
2022-12-19T14:08:24.714Z,14.83
2022-12-19T14:11:38.307Z,7.30
2022-12-19T14:14:15.093Z,4.18
2022-12-19T14:16:48.214Z,2.50
2022-12-19T14:19:23.471Z,4.55
2022-12-19T14:22:06.636Z,2.90
2022-12-19T14:24:42.656Z,2.10
2022-12-19T14:28:25.081Z,2.95
2022-12-19T14:30:28.573Z,3.33
2022-12-19T14:33:47.185Z,3.15
2022-12-19T14:36:05.844Z,3.17
2022-12-19T14:39:24.341Z,4.00
2022-12-19T14:42:02.599Z,3.42
2022-12-19T14:52:08.390Z,3.60
2022-12-19T14:52:34.940Z,2.90
2022-12-19T14:54:13.122Z,3.00
2022-12-19T14:54:28.758Z,3.10
2022-12-19T14:59:15.310Z,1.55
2022-12-19T15:01:45.013Z,3.92
2022-12-19T15:04:52.889Z,2.25
2022-12-19T15:07:20.736Z,2.25
2022-12-19T15:11:07.605Z,1.95
2022-12-19T15:14:47.515Z,2.38
2022-12-19T15:16:07.593Z,3.15
2022-12-19T15:18:43.431Z,4.15
2022-12-19T15:21:15.908Z,8.10
2022-12-19T15:23:47.069Z,4.35
2022-12-19T15:26:20.253Z,3.15
2022-12-19T15:28:51.588Z,2.72
2022-12-19T15:31:34.894Z,2.70
2022-12-19T15:34:44.418Z,2.63
2022-12-19T15:37:15.301Z,1.85
2022-12-19T15:39:45.846Z,3.03
2022-12-19T15:42:21.922Z,2.70
2022-12-19T15:44:52.764Z,2.70
2022-12-19T15:47:30.503Z,3.65
2022-12-19T15:51:53.361Z,3.28
2022-12-19T15:54:48.921Z,2.78
2022-12-19T15:57:24.084Z,2.60
2022-12-19T15:59:54.215Z,1.83
2022-12-19T16:02:42.615Z,2.45
2022-12-19T16:05:16.689Z,1.88
2022-12-19T16:07:48.638Z,2.00
2022-12-19T16:10:19.037Z,1.85
2022-12-19T16:12:53.035Z,2.20
2022-12-19T16:15:29.817Z,2.22
2022-12-19T16:18:03.158Z,2.97
2022-12-19T16:20:36.286Z,2.67
2022-12-19T16:23:07.277Z,2.78
2022-12-19T16:25:40.553Z,2.67
2022-12-19T16:28:19.992Z,2.30
2022-12-19T16:30:50.699Z,2.67
2022-12-19T16:33:23.430Z,2.88
2022-12-19T16:36:04.024Z,2.22
2022-12-19T16:38:36.253Z,2.45
2022-12-19T16:41:06.136Z,2.50
2022-12-19T16:43:39.831Z,2.08
2022-12-19T16:46:17.493Z,4.35
2022-12-19T16:48:47.012Z,4.93
2022-12-19T16:51:23.279Z,6.18
2022-12-19T16:53:57.784Z,5.00
2022-12-19T16:56:31.611Z,4.25
2022-12-19T16:59:04.402Z,5.95
2022-12-19T17:04:03.137Z,4.22
2022-12-19T17:06:32.571Z,3.67
2022-12-19T17:09:03.632Z,3.25
2022-12-19T17:11:33.836Z,3.15
2022-12-19T17:14:08.556Z,2.72
2022-12-19T17:16:38.982Z,3.10
2022-12-19T17:19:09.946Z,3.75
2022-12-19T17:21:39.517Z,3.22
2022-12-19T17:24:16.551Z,3.67
2022-12-19T17:26:46.619Z,2.78
2022-12-19T17:29:16.814Z,3.60
2022-12-19T17:31:46.579Z,3.30
2022-12-19T17:34:21.492Z,2.72
2022-12-19T17:36:52.178Z,2.70
2022-12-19T17:39:27.591Z,3.03
2022-12-19T17:42:00.570Z,3.20
2022-12-19T17:44:29.949Z,3.58
2022-12-19T17:46:59.351Z,3.53
2022-12-19T17:49:31.794Z,4.00
2022-12-19T17:52:02.434Z,5.18
2022-12-19T17:54:33.493Z,4.05
2022-12-19T17:57:02.864Z,3.97
2022-12-19T17:59:32.230Z,4.03
2022-12-19T18:02:01.654Z,3.25
2022-12-19T18:04:33.446Z,3.28
2022-12-19T18:07:02.882Z,2.45
2022-12-19T18:09:33.751Z,2.88
2022-12-19T18:12:03.032Z,2.95
2022-12-19T18:14:32.352Z,3.58
2022-12-19T18:17:02.419Z,3.40
2022-12-19T18:19:34.279Z,3.67
2022-12-19T18:22:03.700Z,5.03
2022-12-19T18:24:34.471Z,4.72
2022-12-19T18:27:03.819Z,3.50
2022-12-19T18:29:33.233Z,3.90
2022-12-19T18:32:02.813Z,4.90
2022-12-19T18:34:33.796Z,3.80
2022-12-19T18:37:05.670Z,3.42
2022-12-19T18:39:36.522Z,3.63
2022-12-19T18:42:20.682Z,3.10
2022-12-19T18:44:50.488Z,3.20
2022-12-19T18:47:25.709Z,3.90
2022-12-19T18:51:52.428Z,3.08
2022-12-19T18:54:24.206Z,3.00
2022-12-19T18:56:53.699Z,3.85
2022-12-19T18:59:23.156Z,5.30
2022-12-19T19:01:52.718Z,3.35
2022-12-19T19:04:22.386Z,4.00
2022-12-19T19:06:55.489Z,4.45
2022-12-19T19:09:24.991Z,4.20
2022-12-19T19:11:54.449Z,4.05
2022-12-19T19:14:23.970Z,3.60
2022-12-19T19:16:54.826Z,3.67
2022-12-19T19:19:24.212Z,4.18
2022-12-19T19:21:55.037Z,3.90
2022-12-19T19:24:25.821Z,4.35
2022-12-19T19:26:55.159Z,5.03
2022-12-19T19:29:24.433Z,4.30
2022-12-19T19:31:54.385Z,5.00
2022-12-19T19:34:31.253Z,4.32
2022-12-19T19:37:06.195Z,4.72
2022-12-19T19:39:37.038Z,4.32
2022-12-19T19:42:07.036Z,4.68
2022-12-19T19:44:36.511Z,4.88
2022-12-19T19:47:06.114Z,6.03
2022-12-19T19:49:35.609Z,6.00
2022-12-19T19:52:06.875Z,4.75
2022-12-19T19:54:37.398Z,5.60
2022-12-19T19:57:06.832Z,5.35
2022-12-19T19:59:36.139Z,5.90
2022-12-19T20:02:05.586Z,4.55
2022-12-19T20:04:35.271Z,5.43
2022-12-19T20:07:06.413Z,4.20
2022-12-19T20:09:35.731Z,5.18
2022-12-19T20:12:05.194Z,4.75
2022-12-19T20:14:34.558Z,4.22
2022-12-19T20:17:03.929Z,4.68
2022-12-19T20:19:33.173Z,3.95
2022-12-19T20:22:02.750Z,4.68
2022-12-19T20:24:33.594Z,5.53
2022-12-19T20:27:03.036Z,5.00
2022-12-19T20:29:32.422Z,5.10
2022-12-19T20:32:01.988Z,4.45
2022-12-19T20:34:31.537Z,5.20
2022-12-19T20:37:00.880Z,5.32
2022-12-19T20:39:30.751Z,4.30
2022-12-19T20:42:01.699Z,6.68
2022-12-19T20:44:31.600Z,5.28
2022-12-19T20:47:01.130Z,5.22
2022-12-19T20:49:30.611Z,3.95
2022-12-19T20:51:59.968Z,4.70
2022-12-19T20:54:29.514Z,4.88
2022-12-19T20:57:00.715Z,5.18
2022-12-19T20:59:30.215Z,3.92
2022-12-19T21:02:00.810Z,4.68
2022-12-19T21:04:31.310Z,4.10
2022-12-19T21:07:00.934Z,5.07
2022-12-19T21:09:30.426Z,8.85
2022-12-19T21:12:01.282Z,7.45
2022-12-19T21:14:30.974Z,5.68
2022-12-19T21:17:00.469Z,4.93
2022-12-19T21:19:29.882Z,5.95
2022-12-19T21:21:59.421Z,5.18
2022-12-19T21:24:29.449Z,5.93
2022-12-19T21:26:58.873Z,5.82
2022-12-19T21:29:29.910Z,6.68
2022-12-19T21:31:59.345Z,5.70
2022-12-19T21:34:28.818Z,5.47
2022-12-19T21:36:58.053Z,5.05
2022-12-19T21:39:27.493Z,4.32
2022-12-19T21:41:57.010Z,4.13
2022-12-19T21:44:26.471Z,4.63
2022-12-19T21:46:57.472Z,6.05
2022-12-19T21:51:52.117Z,6.90
2022-12-19T21:54:21.571Z,5.47
2022-12-19T21:56:51.029Z,6.40
2022-12-19T21:59:20.551Z,6.97
2022-12-19T22:01:50.430Z,8.55
2022-12-19T22:04:22.908Z,9.75
2022-12-19T22:06:54.159Z,8.02
2022-12-19T22:09:25.956Z,6.45
2022-12-19T22:11:55.555Z,5.15
2022-12-19T22:14:25.517Z,6.72
2022-12-19T22:16:54.994Z,5.15
2022-12-19T22:19:24.613Z,5.03
2022-12-19T22:21:55.443Z,5.10
2022-12-19T22:24:25.022Z,5.20
2022-12-19T22:26:54.528Z,5.15
2022-12-19T22:29:23.920Z,4.82
2022-12-19T22:31:53.757Z,3.95
2022-12-19T22:34:24.104Z,5.00
2022-12-19T22:36:54.990Z,4.43
2022-12-19T22:39:24.384Z,4.70
2022-12-19T22:41:53.834Z,4.93
2022-12-19T22:44:26.388Z,4.57
2022-12-19T22:46:56.377Z,4.72
2022-12-19T22:49:25.697Z,4.70
2022-12-19T22:51:56.632Z,4.63
2022-12-19T22:54:26.068Z,4.60
2022-12-19T22:56:55.557Z,4.43
2022-12-19T22:59:25.073Z,3.95
2022-12-19T23:01:56.119Z,4.07
2022-12-19T23:04:25.727Z,4.65
2022-12-19T23:06:56.661Z,5.13
2022-12-19T23:09:25.986Z,4.63
2022-12-19T23:11:55.954Z,4.97
2022-12-19T23:14:25.585Z,4.38
2022-12-19T23:16:55.173Z,4.90
2022-12-19T23:19:24.637Z,5.15
2022-12-19T23:21:55.509Z,4.78
2022-12-19T23:24:25.235Z,5.13
2022-12-19T23:26:55.764Z,4.53
2022-12-19T23:29:25.731Z,4.50
2022-12-19T23:31:55.205Z,4.70
2022-12-19T23:34:25.832Z,5.28
2022-12-19T23:37:12.806Z,5.28
2022-12-19T23:39:42.576Z,3.92
2022-12-19T23:42:11.947Z,4.40
2022-12-19T23:44:41.475Z,3.60
2022-12-19T23:47:10.895Z,4.07
2022-12-19T23:49:40.328Z,4.03
2022-12-19T23:52:11.769Z,4.55
2022-12-19T23:54:41.195Z,3.35
2022-12-19T23:57:10.655Z,4.05
2022-12-19T23:59:40.118Z,3.72
